Terminal Aerodrome Forecast
Issued by NWS Charleston, WV

Current Version | Previous Version | Graphics & Text | Print | Product List | Glossary On
Versions: 1 2 3 4 5 6 7 8 9 10 11 12 13 14 15 16 17 18 19 20 21 22 23 24 25 26 27
303
FTUS41 KRLX 211459 AAA
TAFBKW
TAF AMD
KBKW 211459Z 2115/2212 26010KT P6SM OVC015
     FM212100 30009KT P6SM SHRA VCTS OVC015CB
     FM212300 30006KT P6SM OVC015
     FM220600 33004KT 4SM SHRA OVC010
     FM220800 35004KT 4SM SHRA OVC008=

USA.gov is the U.S. government's official web portal to all federal, state and local government web resources and services.